Time;durP1;ratioP1;P1;durP2;ratioP2;P2;SDS_P1;SDS_P2;PMS_P1;PMS_P2;Temp;Humidity;BMP_temperature;BMP_pressure;BME280_temperature;BME280_humidity;BME280_pressure;Samples;Min_cycle;Max_cycle;Signal;HPM_P1;HPM_P2
2022/03/02 00:00:16;;;;;;;61.33;25.77;;;;;;;4.22;100.00;102556.09;5229349;28;20033;-76
2022/03/02 00:02:47;;;;;;;60.05;25.48;;;;;;;4.22;100.00;102549.88;5230028;28;20032;-75
2022/03/02 00:05:17;;;;;;;50.40;23.38;;;;;;;4.27;100.00;102551.38;5229080;28;20032;-76
2022/03/02 00:07:48;;;;;;;54.70;24.17;;;;;;;4.30;100.00;102550.34;5231942;28;20460;-76
2022/03/02 00:10:19;;;;;;;50.65;23.00;;;;;;;4.31;100.00;102552.91;5233277;28;20067;-74
2022/03/02 00:12:49;;;;;;;63.30;25.42;;;;;;;4.26;100.00;102543.47;5231520;28;20024;-75
2022/03/02 00:15:20;;;;;;;57.25;26.15;;;;;;;4.20;100.00;102542.00;5232338;28;20056;-76
2022/03/02 00:17:51;;;;;;;53.97;23.80;;;;;;;4.18;100.00;102537.75;5226805;28;20049;-75
2022/03/02 00:20:22;;;;;;;58.13;25.83;;;;;;;4.16;100.00;102538.66;5222476;28;20025;-76
2022/03/02 00:22:53;;;;;;;59.97;26.08;;;;;;;4.15;100.00;102541.41;5231196;28;20017;-76
2022/03/02 00:25:24;;;;;;;61.90;24.55;;;;;;;4.11;100.00;102542.50;5230465;28;20497;-76
2022/03/02 00:27:54;;;;;;;73.35;28.83;;;;;;;4.09;100.00;102537.28;5230704;28;20050;-76
2022/03/02 00:30:28;;;;;;;75.53;29.63;;;;;;;4.06;100.00;102545.41;5231511;28;20076;-76
2022/03/02 00:33:00;;;;;;;81.72;30.17;;;;;;;4.06;100.00;102547.22;5218065;28;20075;-76
2022/03/02 00:35:30;;;;;;;119.22;34.90;;;;;;;4.04;100.00;102538.47;5230310;28;20413;-76
2022/03/02 00:38:02;;;;;;;93.80;32.45;;;;;;;4.01;100.00;102539.50;5230939;28;20039;-76
2022/03/02 00:40:33;;;;;;;70.70;27.40;;;;;;;4.01;100.00;102526.22;5216055;28;20021;-76
2022/03/02 00:43:05;;;;;;;74.18;27.88;;;;;;;4.00;100.00;102523.66;5219765;28;20027;-76
2022/03/02 00:45:37;;;;;;;72.38;26.58;;;;;;;4.01;100.00;102528.88;5230988;28;20516;-76
2022/03/02 00:48:08;;;;;;;64.28;25.92;;;;;;;3.96;100.00;102524.75;5232160;28;20021;-76
2022/03/02 00:50:39;;;;;;;64.22;26.48;;;;;;;3.90;100.00;102526.78;5232714;28;20020;-76
2022/03/02 00:53:10;;;;;;;59.63;25.30;;;;;;;3.84;100.00;102529.78;5231326;28;20035;-76
2022/03/02 00:55:40;;;;;;;56.97;25.17;;;;;;;3.80;100.00;102530.88;5223028;28;20025;-76
2022/03/02 00:58:11;;;;;;;51.67;24.90;;;;;;;3.80;100.00;102525.56;5207962;28;20055;-76
2022/03/02 01:00:42;;;;;;;59.15;25.33;;;;;;;3.84;100.00;102524.47;5230665;28;20056;-76
2022/03/02 01:03:12;;;;;;;66.93;26.67;;;;;;;3.85;100.00;102523.53;5231622;28;20112;-76
2022/03/02 01:05:43;;;;;;;70.38;27.45;;;;;;;3.89;100.00;102524.22;5230952;28;20024;-76
2022/03/02 01:08:14;;;;;;;79.53;28.90;;;;;;;3.90;100.00;102526.78;5229467;28;20048;-76
2022/03/02 01:10:44;;;;;;;79.45;29.60;;;;;;;3.90;100.00;102517.97;5229803;28;20040;-76
2022/03/02 01:13:15;;;;;;;79.13;28.73;;;;;;;3.91;100.00;102519.69;5212522;28;20481;-76
2022/03/02 01:15:45;;;;;;;76.03;27.70;;;;;;;3.88;100.00;102518.06;5213102;28;20177;-76
2022/03/02 01:18:16;;;;;;;69.22;26.88;;;;;;;3.85;100.00;102518.22;5216605;28;20013;-75
2022/03/02 01:20:46;;;;;;;65.75;26.92;;;;;;;3.83;100.00;102511.28;5224551;28;20048;-76
2022/03/02 01:23:17;;;;;;;59.30;25.85;;;;;;;3.82;100.00;102515.75;5230502;28;20021;-76
2022/03/02 01:25:47;;;;;;;57.10;26.70;;;;;;;3.80;100.00;102514.09;5226867;28;20094;-76
2022/03/02 01:28:17;;;;;;;58.03;25.02;;;;;;;3.82;100.00;102518.41;5219434;28;20040;-76
2022/03/02 01:30:48;;;;;;;55.45;24.73;;;;;;;3.83;100.00;102524.56;5227463;28;20398;-75
2022/03/02 01:33:18;;;;;;;54.20;25.27;;;;;;;3.84;100.00;102523.63;5218206;28;20025;-76
2022/03/02 01:35:49;;;;;;;63.63;27.25;;;;;;;3.84;100.00;102516.50;5227475;28;20136;-76
2022/03/02 01:38:20;;;;;;;61.00;25.80;;;;;;;3.85;100.00;102514.69;5228897;28;20249;-76
2022/03/02 01:40:51;;;;;;;58.00;25.35;;;;;;;3.83;100.00;102508.63;5222240;28;20021;-76
2022/03/02 01:43:21;;;;;;;60.33;24.45;;;;;;;3.81;100.00;102511.34;5222010;28;20021;-76
2022/03/02 01:45:52;;;;;;;57.08;25.38;;;;;;;3.81;100.00;102511.34;5227285;28;20029;-76
2022/03/02 01:48:22;;;;;;;52.33;24.00;;;;;;;3.77;100.00;102504.50;5226870;28;20103;-76
2022/03/02 01:50:53;;;;;;;57.55;25.00;;;;;;;3.77;100.00;102499.19;5215209;28;20114;-76
2022/03/02 01:53:23;;;;;;;53.05;24.00;;;;;;;3.74;100.00;102496.69;5226789;28;20118;-76
2022/03/02 01:55:56;;;;;;;55.17;23.65;;;;;;;3.73;100.00;102497.66;5225872;28;20060;-76
2022/03/02 01:58:28;;;;;;;55.90;25.38;;;;;;;3.70;100.00;102500.44;5225850;28;20269;-76
2022/03/02 02:00:59;;;;;;;57.83;24.58;;;;;;;3.70;100.00;102497.78;5225940;28;20035;-76
2022/03/02 02:03:30;;;;;;;55.83;23.35;;;;;;;3.70;100.00;102495.13;5225223;28;20046;-76
2022/03/02 02:06:01;;;;;;;56.70;24.27;;;;;;;3.69;100.00;102489.91;5221595;28;20442;-76
2022/03/02 02:08:32;;;;;;;53.35;22.67;;;;;;;3.69;100.00;102488.13;5226925;28;20033;-76
2022/03/02 02:11:03;;;;;;;62.83;24.30;;;;;;;3.67;100.00;102495.31;5227000;28;20043;-76
2022/03/02 02:13:34;;;;;;;55.92;23.83;;;;;;;3.64;100.00;102487.50;5226881;28;20024;-76
2022/03/02 02:16:06;;;;;;;50.38;22.80;;;;;;;3.62;100.00;102495.56;5226641;28;20492;-76
2022/03/02 02:18:36;;;;;;;62.08;23.98;;;;;;;3.59;100.00;102486.91;5216060;28;20025;-76
2022/03/02 02:21:09;;;;;;;59.22;23.15;;;;;;;3.58;100.00;102485.19;5224093;28;20082;-76
2022/03/02 02:23:40;;;;;;;52.78;23.73;;;;;;;3.58;100.00;102477.22;5226363;28;20025;-76
2022/03/02 02:26:11;;;;;;;55.80;23.38;;;;;;;3.59;100.00;102471.81;5225141;28;20028;-76
2022/03/02 02:28:42;;;;;;;57.58;23.38;;;;;;;3.60;100.00;102470.03;5226915;28;20056;-76
2022/03/02 02:31:13;;;;;;;55.97;23.65;;;;;;;3.61;100.00;102471.75;5226796;28;20026;-76
2022/03/02 02:33:44;;;;;;;54.38;21.15;;;;;;;3.61;100.00;102463.78;5226725;28;20470;-76
2022/03/02 02:36:15;;;;;;;53.97;22.77;;;;;;;3.62;100.00;102460.22;5226214;28;20111;-76
2022/03/02 02:38:46;;;;;;;53.10;21.40;;;;;;;3.60;100.00;102465.56;5226416;28;20509;-76
2022/03/02 02:41:18;;;;;;;55.35;22.35;;;;;;;3.61;100.00;102461.13;5215221;28;20028;-76
2022/03/02 02:43:49;;;;;;;48.67;21.20;;;;;;;3.58;100.00;102462.16;5225593;28;20079;-76
2022/03/02 02:46:19;;;;;;;48.03;20.85;;;;;;;3.56;100.00;102453.41;5226998;28;20036;-76
2022/03/02 02:48:50;;;;;;;49.28;21.60;;;;;;;3.54;100.00;102455.28;5226600;28;20052;-76
2022/03/02 02:51:21;;;;;;;49.50;21.02;;;;;;;3.52;100.00;102443.91;5226177;28;20547;-76
2022/03/02 02:53:51;;;;;;;54.88;19.80;;;;;;;3.52;100.00;102440.41;5225169;28;20076;-76
2022/03/02 02:56:22;;;;;;;47.53;19.73;;;;;;;3.50;100.00;102437.81;5225456;28;20048;-76
2022/03/02 02:58:53;;;;;;;49.45;19.63;;;;;;;3.51;100.00;102441.31;5225223;28;20028;-76
2022/03/02 03:01:23;;;;;;;51.53;20.40;;;;;;;3.50;100.00;102436.97;5224660;28;20028;-76
2022/03/02 03:03:54;;;;;;;47.97;19.40;;;;;;;3.51;100.00;102441.31;5213075;28;20097;-76
2022/03/02 03:06:25;;;;;;;48.28;20.13;;;;;;;3.53;100.00;102447.41;5221179;28;20461;-76
2022/03/02 03:08:56;;;;;;;50.60;19.65;;;;;;;3.53;100.00;102435.00;5226415;28;20503;-76
2022/03/02 03:11:26;;;;;;;50.95;19.02;;;;;;;3.54;100.00;102433.22;5225974;28;20021;-76
2022/03/02 03:13:59;;;;;;;45.15;18.17;;;;;;;3.57;100.00;102438.38;5225356;28;20358;-76
2022/03/02 03:16:29;;;;;;;47.95;19.23;;;;;;;3.58;100.00;102445.38;5224513;28;20028;-76
2022/03/02 03:19:00;;;;;;;45.83;18.92;;;;;;;3.57;100.00;102438.38;5216154;28;20052;-75
2022/03/02 03:21:30;;;;;;;42.65;19.05;;;;;;;3.58;100.00;102446.22;5229894;28;20032;-76
2022/03/02 03:24:01;;;;;;;48.95;19.63;;;;;;;3.61;100.00;102443.44;5213026;28;20028;-76
2022/03/02 03:26:32;;;;;;;44.72;19.13;;;;;;;3.63;100.00;102440.69;5216573;28;20036;-76
2022/03/02 03:29:02;;;;;;;49.17;20.10;;;;;;;3.62;100.00;102437.19;5228175;28;20021;-76
2022/03/02 03:31:33;;;;;;;53.50;20.60;;;;;;;3.62;100.00;102433.66;5200746;28;20032;-76
2022/03/02 03:34:03;;;;;;;44.45;18.38;;;;;;;3.63;100.00;102433.56;5228797;28;20028;-75
2022/03/02 03:36:34;;;;;;;50.53;20.05;;;;;;;3.66;100.00;102435.19;5230105;28;20033;-76
2022/03/02 03:39:04;;;;;;;45.67;19.30;;;;;;;3.64;100.00;102435.28;5228157;28;20048;-76
2022/03/02 03:41:35;;;;;;;49.50;19.88;;;;;;;3.62;100.00;102431.88;5218714;28;20033;-76
2022/03/02 03:44:05;;;;;;;50.47;19.42;;;;;;;3.61;100.00;102432.81;5227442;28;20064;-76
2022/03/02 03:46:36;;;;;;;39.65;17.65;;;;;;;3.57;100.00;102433.06;5227269;28;20489;-76
2022/03/02 03:49:06;;;;;;;46.28;18.50;;;;;;;3.56;100.00;102432.16;5228596;28;20036;-76
2022/03/02 03:51:37;;;;;;;43.67;19.15;;;;;;;3.54;100.00;102425.25;5228201;28;20021;-76
2022/03/02 03:54:08;;;;;;;45.78;18.23;;;;;;;3.52;100.00;102424.50;5228436;28;20032;-76
2022/03/02 03:56:38;;;;;;;42.80;18.92;;;;;;;3.52;100.00;102424.50;5222046;28;20112;-76
2022/03/02 03:59:09;;;;;;;44.55;18.95;;;;;;;3.48;100.00;102415.81;5227967;28;20446;-76
2022/03/02 04:01:39;;;;;;;49.33;18.42;;;;;;;3.48;100.00;102414.97;5227674;28;20094;-76
2022/03/02 04:04:10;;;;;;;44.50;18.95;;;;;;;3.47;100.00;102415.91;5227263;28;20051;-76
2022/03/02 04:06:40;;;;;;;46.63;18.58;;;;;;;3.44;100.00;102419.56;5227716;28;20021;-76
2022/03/02 04:09:11;;;;;;;43.60;18.23;;;;;;;3.41;100.00;102410.91;5228483;28;20033;-76
2022/03/02 04:11:41;;;;;;;43.75;19.20;;;;;;;3.35;100.00;102410.28;5226843;28;20478;-76
2022/03/02 04:14:12;;;;;;;41.53;18.65;;;;;;;3.29;100.00;102413.28;5227558;28;20101;-76
2022/03/02 04:16:42;;;;;;;47.05;18.42;;;;;;;3.25;100.00;102403.75;5226416;28;20040;-75
2022/03/02 04:19:13;;;;;;;48.00;18.58;;;;;;;3.24;100.00;102404.72;5213423;28;20127;-76
2022/03/02 04:21:43;;;;;;;46.85;18.65;;;;;;;3.20;100.00;102392.53;5226463;28;20044;-76
2022/03/02 04:24:14;;;;;;;41.97;18.20;;;;;;;3.16;100.00;102390.13;5227294;28;20531;-76
2022/03/02 04:26:44;;;;;;;46.00;18.05;;;;;;;3.08;100.00;102387.91;5216574;28;20036;-75
2022/03/02 04:29:15;;;;;;;47.08;18.58;;;;;;;3.03;100.00;102397.88;5207740;28;20397;-76
2022/03/02 04:31:45;;;;;;;42.78;18.23;;;;;;;2.97;100.00;102390.25;5227105;28;20397;-75
2022/03/02 04:34:16;;;;;;;42.97;19.02;;;;;;;2.90;100.00;102392.34;5226854;28;20497;-76
2022/03/02 04:36:47;;;;;;;47.67;19.08;;;;;;;2.84;100.00;102390.03;5227280;28;20020;-76
2022/03/02 04:39:17;;;;;;;38.53;18.13;;;;;;;2.78;100.00;102385.91;5227220;28;20079;-76
2022/03/02 04:41:48;;;;;;;48.20;18.77;;;;;;;2.74;100.00;102383.47;5225153;28;20167;-76
2022/03/02 04:44:18;;;;;;;49.67;19.45;;;;;;;2.71;100.00;102380.97;5226736;28;20029;-76
2022/03/02 04:46:51;;;;;;;46.35;18.63;;;;;;;2.67;100.00;102379.44;5226999;28;20123;-76
2022/03/02 04:49:21;;;;;;;48.05;19.38;;;;;;;2.66;100.00;102367.97;5226930;28;20037;-76
2022/03/02 04:51:52;;;;;;;45.13;18.83;;;;;;;2.64;100.00;102372.47;5226498;28;20021;-76
2022/03/02 04:57:12;;;;;;;47.35;19.55;;;;;;;2.60;100.00;102371.78;5226771;28;20397;-76
2022/03/02 04:59:42;;;;;;;46.67;18.13;;;;;;;2.57;100.00;102369.28;5226711;28;20029;-76
2022/03/02 05:02:13;;;;;;;53.67;18.55;;;;;;;2.58;100.00;102362.19;5226442;28;20466;-76
2022/03/02 05:04:43;;;;;;;48.47;18.60;;;;;;;2.55;100.00;102355.25;5222928;28;20028;-76
2022/03/02 05:07:14;;;;;;;44.40;18.52;;;;;;;2.54;100.00;102356.19;5226461;28;20041;-76
2022/03/02 05:09:44;;;;;;;47.33;18.30;;;;;;;2.53;100.00;102359.78;5230076;28;20063;-76
2022/03/02 05:12:15;;;;;;;46.22;18.00;;;;;;;2.55;100.00;102359.69;5228699;28;20021;-76
2022/03/02 05:14:45;;;;;;;50.92;19.45;;;;;;;2.56;100.00;102361.41;5229393;28;20025;-76
2022/03/02 05:17:16;;;;;;;44.33;19.10;;;;;;;2.59;100.00;102363.91;5228478;28;20036;-76
2022/03/02 05:19:47;;;;;;;44.90;18.63;;;;;;;2.62;100.00;102368.22;5215089;28;20032;-76
2022/03/02 05:22:17;;;;;;;53.67;17.67;;;;;;;2.62;100.00;102363.75;5227242;28;20017;-76
2022/03/02 05:24:48;;;;;;;53.20;20.27;;;;;;;2.63;100.00;102362.81;5225917;28;20031;-76
2022/03/02 05:27:18;;;;;;;52.53;19.50;;;;;;;2.64;100.00;102355.72;5225233;28;20055;-76
2022/03/02 05:29:49;;;;;;;49.22;19.52;;;;;;;2.66;100.00;102360.03;5217407;28;20552;-76
2022/03/02 05:32:19;;;;;;;45.45;18.13;;;;;;;2.69;100.00;102357.22;5229509;28;20028;-76
2022/03/02 05:34:50;;;;;;;52.22;19.08;;;;;;;2.70;100.00;102358.91;5228705;28;20029;-76
2022/03/02 05:37:20;;;;;;;45.97;18.13;;;;;;;2.71;100.00;102358.00;5228779;28;20021;-76
2022/03/02 05:39:51;;;;;;;48.03;19.23;;;;;;;2.71;100.00;102357.13;5228788;28;20021;-76
2022/03/02 05:42:21;;;;;;;44.70;17.67;;;;;;;2.71;100.00;102359.75;5229109;28;20020;-77
2022/03/02 05:44:51;;;;;;;47.40;18.38;;;;;;;2.71;100.00;102365.94;5227898;28;20508;-76
2022/03/02 05:47:22;;;;;;;49.70;18.58;;;;;;;2.68;100.00;102360.78;5228148;28;20029;-76
2022/03/02 05:49:52;;;;;;;47.35;18.98;;;;;;;2.68;100.00;102363.44;5228891;28;20088;-76
2022/03/02 05:52:24;;;;;;;45.53;17.92;;;;;;;2.66;100.00;102354.72;5226342;28;20177;-76
2022/03/02 05:54:54;;;;;;;44.83;19.65;;;;;;;2.64;100.00;102361.03;5228419;28;20028;-76
2022/03/02 05:57:25;;;;;;;45.38;18.85;;;;;;;2.60;100.00;102360.31;5229107;28;20047;-76
2022/03/02 05:59:55;;;;;;;53.95;18.13;;;;;;;2.55;100.00;102365.84;5228254;28;20033;-76
2022/03/02 06:02:26;;;;;;;45.25;19.40;;;;;;;2.50;100.00;102361.72;5226828;28;20025;-76
2022/03/02 06:04:56;;;;;;;48.85;18.63;;;;;;;2.45;100.00;102358.44;5222494;28;20041;-77
2022/03/02 06:07:27;;;;;;;50.58;18.67;;;;;;;2.41;100.00;102360.41;5227342;28;20025;-76
2022/03/02 06:09:58;;;;;;;50.28;18.00;;;;;;;2.34;100.00;102357.19;5229945;28;20025;-76
2022/03/02 06:12:28;;;;;;;46.60;17.83;;;;;;;2.30;100.00;102360.91;5211049;28;20540;-76
2022/03/02 06:14:59;;;;;;;45.58;16.30;;;;;;;2.25;100.00;102355.00;5229741;28;20486;-77
2022/03/02 06:17:30;;;;;;;48.10;19.20;;;;;;;2.20;100.00;102349.06;5226002;28;20036;-77
2022/03/02 06:20:01;;;;;;;51.15;18.13;;;;;;;2.17;100.00;102357.19;5218002;28;20078;-74
2022/03/02 06:22:31;;;;;;;52.10;18.40;;;;;;;2.11;100.00;102362.78;5231919;28;20075;-77
2022/03/02 06:25:04;;;;;;;46.72;17.50;;;;;;;2.08;100.00;102363.78;5217026;28;20020;-77
2022/03/02 06:27:36;;;;;;;47.03;18.65;;;;;;;2.04;100.00;102361.34;5224582;28;20385;-77
2022/03/02 06:30:08;;;;;;;45.75;19.70;;;;;;;2.01;100.00;102359.72;5228812;28;20112;-76
2022/03/02 06:32:39;;;;;;;47.60;18.48;;;;;;;2.00;100.00;102360.63;5213577;28;20560;-77
2022/03/02 06:35:10;;;;;;;52.97;18.55;;;;;;;1.97;100.00;102363.44;5228324;28;20060;-76
2022/03/02 06:37:40;;;;;;;46.90;18.77;;;;;;;1.95;100.00;102359.13;5227786;28;20017;-76
2022/03/02 06:40:12;;;;;;;48.20;19.20;;;;;;;1.98;100.00;102356.34;5226398;28;20024;-75
2022/03/02 06:42:59;;;;;;;59.88;20.20;;;;;;;1.99;100.00;102352.78;5198717;28;20108;-75
2022/03/02 06:46:07;;;;;;;50.55;19.73;;;;;;;2.02;100.00;102357.94;5226139;28;20037;-75
2022/03/02 06:48:55;;;;;;;61.50;20.30;;;;;;;2.04;100.00;102356.06;5226278;28;20119;-74
2022/03/02 06:51:29;;;;;;;55.33;19.40;;;;;;;2.06;100.00;102356.84;5228761;28;20489;-75
2022/03/02 06:54:04;;;;;;;49.58;19.33;;;;;;;2.11;100.00;102354.84;5231278;28;20025;-75
2022/03/02 06:56:45;;;;;;;50.67;18.30;;;;;;;2.15;100.00;102359.03;5231933;28;20025;-75
2022/03/02 06:59:26;;;;;;;46.15;19.58;;;;;;;2.21;100.00;102356.09;5202463;28;20033;-75
2022/03/02 07:02:01;;;;;;;47.05;18.73;;;;;;;2.26;100.00;102362.03;5230750;28;20100;-75
2022/03/02 07:04:38;;;;;;;56.92;21.30;;;;;;;2.33;100.00;102360.78;5231525;28;20024;-75
2022/03/02 07:07:10;;;;;;;51.75;19.30;;;;;;;2.42;100.00;102355.97;5229399;28;20258;-75
2022/03/02 07:09:40;;;;;;;47.13;18.05;;;;;;;2.53;100.00;102359.78;5229096;28;20313;-75
2022/03/02 07:12:11;;;;;;;50.67;19.33;;;;;;;2.65;100.00;102363.59;5229793;28;20013;-75
2022/03/02 07:14:42;;;;;;;48.25;18.08;;;;;;;2.83;100.00;102367.09;5224433;28;20059;-75
2022/03/02 07:17:13;;;;;;;44.55;19.08;;;;;;;3.04;100.00;102370.44;5228055;28;20052;-75
2022/03/02 07:19:44;;;;;;;52.00;20.00;;;;;;;3.31;100.00;102371.63;5216413;28;20020;-75
2022/03/02 07:22:19;;;;;;;47.15;19.55;;;;;;;3.54;100.00;102370.38;5228667;28;20473;-75
2022/03/02 07:24:53;;;;;;;43.03;19.08;;;;;;;3.78;100.00;102375.28;5228719;28;20033;-75
2022/03/02 07:27:25;;;;;;;52.70;20.48;;;;;;;4.04;100.00;102371.16;5230984;28;20021;-80
2022/03/02 07:29:56;;;;;;;50.13;18.65;;;;;;;4.21;100.00;102370.19;5219613;28;20382;-80
2022/03/02 07:32:32;;;;;;;44.10;17.77;;;;;;;4.28;100.00;102369.78;5229144;28;20066;-81
2022/03/02 07:35:05;;;;;;;41.35;18.65;;;;;;;4.28;100.00;102374.22;5228739;28;20485;-80
2022/03/02 07:37:37;;;;;;;42.08;18.55;;;;;;;4.26;100.00;102368.13;5229581;28;20017;-79
2022/03/02 07:40:10;;;;;;;50.58;19.42;;;;;;;4.26;100.00;102368.13;5229493;28;20598;-80
2022/03/02 07:42:41;;;;;;;44.85;18.25;;;;;;;4.38;100.00;102375.41;5229251;28;20032;-80
2022/03/02 07:45:12;;;;;;;46.72;18.83;;;;;;;4.80;100.00;102369.34;5229593;28;20032;-78
2022/03/02 07:47:43;;;;;;;41.25;18.17;;;;;;;5.20;100.00;102365.13;5230586;28;20234;-80
2022/03/02 07:50:15;;;;;;;40.75;17.58;;;;;;;5.50;100.00;102364.19;5225586;28;20072;-78
2022/03/02 07:52:48;;;;;;;43.13;18.80;;;;;;;5.86;100.00;102360.97;5219850;28;20024;-80
2022/03/02 07:55:19;;;;;;;40.22;18.75;;;;;;;5.92;100.00;102359.75;5228865;28;20369;-80
2022/03/02 07:57:55;;;;;;;53.15;21.15;;;;;;;6.04;100.00;102361.63;5229744;28;20029;-78
2022/03/02 08:00:28;;;;;;;39.85;18.98;;;;;;;6.23;100.00;102363.97;5213080;28;20024;-81
2022/03/02 08:02:59;;;;;;;43.63;18.83;;;;;;;6.22;100.00;102355.13;5229466;28;20021;-81
2022/03/02 08:05:31;;;;;;;40.42;17.65;;;;;;;6.56;100.00;102357.31;5213314;28;20492;-80
2022/03/02 08:08:02;;;;;;;39.80;18.58;;;;;;;6.77;100.00;102355.00;5232113;28;20397;-79
2022/03/02 08:10:32;;;;;;;41.88;18.17;;;;;;;6.90;100.00;102353.22;5220855;28;20040;-80
2022/03/02 08:13:03;;;;;;;45.42;19.45;;;;;;;6.78;100.00;102360.25;5229812;28;20112;-79
2022/03/02 08:15:34;;;;;;;42.20;19.30;;;;;;;6.97;100.00;102357.16;5219781;28;20029;-77
2022/03/02 08:18:05;;;;;;;46.60;19.23;;;;;;;7.00;100.00;102354.28;5223152;28;20022;-80
2022/03/02 08:20:39;;;;;;;42.17;19.65;;;;;;;7.17;100.00;102355.78;5222685;28;20092;-82
2022/03/02 08:23:11;;;;;;;47.40;20.13;;;;;;;7.43;100.00;102368.16;5230467;28;20039;-81
2022/03/02 08:25:41;;;;;;;40.50;19.67;;;;;;;7.75;100.00;102368.50;5212626;28;20052;-80
2022/03/02 08:28:14;;;;;;;38.45;18.75;;;;;;;8.08;100.00;102366.16;5230590;28;20098;-80
2022/03/02 08:30:48;;;;;;;41.40;18.50;;;;;;;8.17;100.00;102369.00;5229828;28;20066;-80
2022/03/02 08:33:25;;;;;;;34.40;18.35;;;;;;;8.39;100.00;102370.97;5230259;28;20390;-80
2022/03/02 08:35:57;;;;;;;34.30;17.10;;;;;;;8.50;100.00;102365.66;5197537;28;20100;-80
2022/03/02 08:38:27;;;;;;;37.15;18.08;;;;;;;8.88;100.00;102369.91;5231662;28;20059;-80
2022/03/02 08:40:58;;;;;;;31.83;17.67;;;;;;;8.87;100.00;102368.22;5229634;28;20048;-80
2022/03/02 08:43:28;;;;;;;35.92;18.48;;;;;;;9.02;100.00;102367.03;5237053;28;20345;-81
2022/03/02 08:45:59;;;;;;;38.42;19.42;;;;;;;9.09;100.00;102375.44;5220025;28;20049;-81
2022/03/02 08:48:29;;;;;;;40.45;18.25;;;;;;;9.18;100.00;102371.19;5235200;28;20048;-81
2022/03/02 08:51:01;;;;;;;37.97;18.35;;;;;;;9.28;100.00;102372.16;5233192;28;20017;-80
2022/03/02 08:53:32;;;;;;;39.15;19.05;;;;;;;9.22;100.00;102361.94;5233583;28;20029;-79
2022/03/02 08:56:04;;;;;;;38.17;17.92;;;;;;;9.07;100.00;102370.19;5233642;28;20036;-79
2022/03/02 08:58:36;;;;;;;37.45;18.42;;;;;;;9.07;100.00;102370.19;5233767;28;20040;-81
2022/03/02 09:01:10;;;;;;;42.47;18.85;;;;;;;9.13;100.00;102368.84;5214622;28;20079;-81
2022/03/02 09:03:45;;;;;;;39.45;19.35;;;;;;;9.26;100.00;102360.72;5231304;28;20033;-76
2022/03/02 09:06:19;;;;;;;36.92;18.60;;;;;;;9.36;100.00;102352.81;5199865;28;20031;-80
2022/03/02 09:08:49;;;;;;;36.78;18.85;;;;;;;9.69;100.00;102354.63;5234120;28;20090;-79
2022/03/02 09:11:21;;;;;;;42.20;19.67;;;;;;;10.10;100.00;102348.56;5229513;28;20481;-81
2022/03/02 09:13:51;;;;;;;36.55;19.10;;;;;;;10.30;100.00;102350.50;5231595;28;20089;-81
2022/03/02 09:16:22;;;;;;;36.97;18.45;;;;;;;10.53;100.00;102350.38;5232398;28;20052;-79
2022/03/02 09:18:52;;;;;;;34.50;17.52;;;;;;;10.81;100.00;102349.75;5201946;28;20056;-80
2022/03/02 09:21:25;;;;;;;35.00;15.98;;;;;;;10.83;92.79;102338.88;5228265;28;20113;-80
2022/03/02 09:23:56;;;;;;;30.50;16.45;;;;;;;10.89;90.59;102338.34;5230070;28;20033;-78
2022/03/02 09:26:26;;;;;;;34.00;17.75;;;;;;;10.69;87.71;102345.41;5217478;28;20055;-79
2022/03/02 09:29:01;;;;;;;34.08;17.75;;;;;;;10.70;91.69;102340.91;5229362;28;20033;-79
2022/03/02 09:31:34;;;;;;;32.72;17.02;;;;;;;10.42;88.84;102337.88;5230516;28;20058;-80
2022/03/02 09:34:09;;;;;;;35.97;17.00;;;;;;;10.52;93.50;102332.59;5211629;28;20029;-80
2022/03/02 09:36:39;;;;;;;38.03;17.13;;;;;;;10.74;98.74;102331.59;5230824;28;20025;-80
2022/03/02 09:39:10;;;;;;;35.30;16.90;;;;;;;10.83;87.83;102328.13;5228777;28;20329;-78
2022/03/02 09:41:49;;;;;;;36.80;17.15;;;;;;;10.78;86.35;102316.94;5226804;28;20031;-78
2022/03/02 09:44:21;;;;;;;36.97;16.92;;;;;;;10.81;93.52;102314.84;5228941;28;20051;-80
2022/03/02 09:46:56;;;;;;;34.20;18.27;;;;;;;10.86;86.56;102314.44;5229621;28;20024;-79
2022/03/02 09:49:29;;;;;;;40.85;17.70;;;;;;;10.87;91.17;102319.69;5229179;28;20032;-78
2022/03/02 09:52:35;;;;;;;34.72;17.50;;;;;;;11.05;88.11;102314.56;5198704;28;20166;-78
2022/03/02 09:55:12;;;;;;;30.30;16.10;;;;;;;10.92;87.27;102311.22;5228944;28;20635;-81
2022/03/02 09:57:45;;;;;;;32.63;16.45;;;;;;;10.92;90.60;102308.53;5228423;28;20075;-80
2022/03/02 10:00:19;;;;;;;39.92;17.08;;;;;;;10.91;87.81;102303.31;5227891;28;20031;-80
2022/03/02 10:02:55;;;;;;;34.28;16.77;;;;;;;11.07;92.45;102309.03;5228488;28;20029;-80
2022/03/02 10:05:28;;;;;;;40.20;18.05;;;;;;;10.97;83.63;102306.31;5211518;28;20401;-79
2022/03/02 10:08:03;;;;;;;35.33;17.45;;;;;;;10.84;83.76;102301.16;5223787;28;20112;-80
2022/03/02 10:10:37;;;;;;;42.33;16.85;;;;;;;10.83;83.82;102304.81;5229244;28;20094;-80
2022/03/02 10:13:10;;;;;;;33.35;16.13;;;;;;;10.63;86.01;102303.84;5227769;28;20420;-79
2022/03/02 10:15:42;;;;;;;29.13;14.77;;;;;;;10.75;86.88;102310.00;5228454;28;20328;-80
2022/03/02 10:18:13;;;;;;;32.15;16.65;;;;;;;10.54;87.82;102301.97;5196164;28;20037;-80
2022/03/02 10:20:49;;;;;;;32.50;16.15;;;;;;;10.67;88.43;102303.59;5221598;28;20025;-80
2022/03/02 10:23:35;;;;;;;38.05;16.63;;;;;;;10.62;86.64;102306.66;5202500;28;20456;-80
2022/03/02 10:26:19;;;;;;;40.55;17.50;;;;;;;10.64;89.10;102304.69;5226637;28;20111;-80
2022/03/02 10:29:10;;;;;;;38.78;15.48;;;;;;;10.43;80.01;102301.16;5211702;28;20150;-81
2022/03/02 10:31:44;;;;;;;36.95;16.23;;;;;;;10.34;85.54;102287.56;5229392;28;20039;-81
2022/03/02 10:34:51;;;;;;;31.63;14.95;;;;;;;10.48;81.57;102297.09;5224228;28;20489;-80
2022/03/02 10:38:01;;;;;;;38.00;17.65;;;;;;;10.61;78.57;102292.41;5225485;28;20047;-80
2022/03/02 10:40:33;;;;;;;33.20;14.45;;;;;;;10.49;77.47;102292.59;5226887;28;20086;-80
2022/03/02 10:43:10;;;;;;;31.13;14.43;;;;;;;10.59;73.70;102293.50;5227791;28;20032;-81
2022/03/02 10:45:46;;;;;;;31.67;14.75;;;;;;;10.79;70.15;102291.78;5227896;28;20032;-80
2022/03/02 10:48:38;;;;;;;28.40;14.90;;;;;;;10.88;69.30;102297.22;5228113;28;20493;-80
2022/03/02 10:51:10;;;;;;;27.65;14.25;;;;;;;10.88;69.75;102297.22;5228895;28;20032;-80
2022/03/02 10:53:41;;;;;;;34.55;15.25;;;;;;;10.98;71.13;102301.78;5225708;28;20057;-79
2022/03/02 10:56:13;;;;;;;27.77;14.23;;;;;;;10.96;67.31;102293.03;5227475;28;20032;-80
2022/03/02 10:58:48;;;;;;;32.88;14.77;;;;;;;11.00;67.42;102295.31;5210715;28;20393;-80
2022/03/02 11:01:19;;;;;;;26.83;14.00;;;;;;;10.95;68.21;102300.25;5228590;28;20029;-80
2022/03/02 11:03:51;;;;;;;27.83;13.95;;;;;;;10.90;65.11;102289.03;5229141;28;20032;-80
2022/03/02 11:06:22;;;;;;;32.08;13.75;;;;;;;11.08;63.22;102281.19;5228558;28;20109;-80
2022/03/02 11:08:55;;;;;;;27.25;12.10;;;;;;;11.08;58.56;102284.72;5217055;28;20032;-79
2022/03/02 11:11:26;;;;;;;27.70;12.85;;;;;;;11.19;58.02;102281.09;5227427;28;20033;-80
2022/03/02 11:13:56;;;;;;;23.30;13.02;;;;;;;11.31;57.75;102277.34;5227571;28;20104;-80
2022/03/02 11:16:27;;;;;;;27.85;12.00;;;;;;;11.75;61.16;102280.56;5226481;28;20039;-80
2022/03/02 11:19:10;;;;;;;27.25;12.65;;;;;;;11.87;55.54;102265.19;5199957;28;20017;-79
2022/03/02 11:21:42;;;;;;;21.83;10.68;;;;;;;11.89;53.16;102268.56;5223064;28;20103;-79
2022/03/02 11:24:16;;;;;;;26.17;11.35;;;;;;;11.97;49.06;102273.25;5224142;28;20033;-78
2022/03/02 11:26:48;;;;;;;24.25;11.43;;;;;;;11.87;50.36;102273.25;5224785;28;20033;-79
2022/03/02 11:29:19;;;;;;;26.45;11.35;;;;;;;11.73;50.53;102263.72;5223700;28;20401;-79
2022/03/02 11:31:51;;;;;;;31.85;12.93;;;;;;;11.80;50.83;102272.09;5224761;28;20027;-79
2022/03/02 11:34:42;;;;;;;25.77;11.60;;;;;;;12.05;52.28;102266.19;5222912;28;20071;-79